createdAt,value
2022-12-12T00:02:09.648Z,4.00
2022-12-12T00:07:12.206Z,4.00
2022-12-12T00:12:15.297Z,4.00
2022-12-12T00:17:18.050Z,4.00
2022-12-12T00:22:20.824Z,3.90
2022-12-12T00:27:23.695Z,4.00
2022-12-12T00:32:26.440Z,4.00
2022-12-12T00:37:28.925Z,4.10
2022-12-12T00:42:31.386Z,4.10
2022-12-12T00:47:34.877Z,4.20
2022-12-12T00:52:37.391Z,4.00
2022-12-12T00:57:39.804Z,4.00
2022-12-12T01:02:42.640Z,4.10
2022-12-12T01:07:45.295Z,4.10
2022-12-12T01:12:47.854Z,4.10
2022-12-12T01:17:50.232Z,4.00
2022-12-12T01:22:53.189Z,4.00
2022-12-12T01:27:56.075Z,4.00
2022-12-12T01:32:59.906Z,3.90
2022-12-12T01:38:02.386Z,3.80
2022-12-12T01:43:13.977Z,3.80
2022-12-12T01:48:16.591Z,3.80
2022-12-12T01:53:20.329Z,3.80
2022-12-12T01:58:23.674Z,3.70
2022-12-12T02:03:27.242Z,3.60
2022-12-12T02:08:30.411Z,3.60
2022-12-12T02:13:35.621Z,3.70
2022-12-12T02:18:55.268Z,3.60
2022-12-12T02:24:25.973Z,3.60
2022-12-12T02:30:01.282Z,3.50
2022-12-12T02:35:13.811Z,3.40
2022-12-12T02:41:17.510Z,3.40
2022-12-12T02:46:44.358Z,3.20
2022-12-12T02:51:49.261Z,3.20
2022-12-12T02:56:56.641Z,3.00
2022-12-12T03:02:20.505Z,2.90
2022-12-12T03:07:50.449Z,2.90
2022-12-12T03:13:16.232Z,2.90
2022-12-12T03:18:42.903Z,2.90
2022-12-12T03:23:57.412Z,2.90
2022-12-12T03:29:08.343Z,2.70
2022-12-12T03:34:25.346Z,2.80
2022-12-12T03:39:33.519Z,2.80
2022-12-12T03:44:43.933Z,2.80
2022-12-12T03:50:01.045Z,2.80
2022-12-12T03:55:12.324Z,2.90
2022-12-12T04:00:16.028Z,2.80
2022-12-12T04:05:37.162Z,2.60
2022-12-12T04:11:10.260Z,2.50
2022-12-12T04:16:16.543Z,2.50
2022-12-12T04:21:44.248Z,2.40
2022-12-12T04:26:56.572Z,2.20
2022-12-12T04:32:05.963Z,2.00
2022-12-12T04:37:13.230Z,2.10
2022-12-12T04:42:22.232Z,2.20
2022-12-12T04:47:28.735Z,2.20
2022-12-12T04:52:33.583Z,2.20
2022-12-12T04:57:41.419Z,2.10
2022-12-12T05:02:47.551Z,2.00
2022-12-12T05:07:54.993Z,2.10
2022-12-12T05:12:59.762Z,2.00
2022-12-12T05:18:07.392Z,2.10
2022-12-12T05:23:09.894Z,2.20
2022-12-12T05:28:12.400Z,2.10
2022-12-12T05:33:15.849Z,2.10
2022-12-12T05:38:18.310Z,0.70
2022-12-12T05:43:20.727Z,1.80
2022-12-12T05:48:24.659Z,1.70
2022-12-12T05:53:27.219Z,1.60
2022-12-12T05:58:29.741Z,1.60
2022-12-12T06:03:37.550Z,1.60
2022-12-12T06:08:40.124Z,1.60
2022-12-12T06:13:42.694Z,1.80
2022-12-12T06:18:50.444Z,1.90
2022-12-12T06:23:53.266Z,2.00
2022-12-12T06:28:56.934Z,2.00
2022-12-12T06:33:59.744Z,2.00
2022-12-12T06:39:02.601Z,1.90
2022-12-12T06:44:05.588Z,1.90
2022-12-12T06:49:10.120Z,1.90
2022-12-12T06:54:16.455Z,1.90
2022-12-12T06:59:19.165Z,1.80
2022-12-12T07:04:21.519Z,3.20
2022-12-12T07:09:24.020Z,1.70
2022-12-12T07:14:26.428Z,1.50
2022-12-12T07:19:28.988Z,1.50
2022-12-12T07:24:31.518Z,0.80
2022-12-12T07:29:34.338Z,0.70
2022-12-12T07:34:37.118Z,0.70
2022-12-12T07:39:39.643Z,0.80
2022-12-12T07:44:42.091Z,0.90
2022-12-12T07:49:44.542Z,0.90
2022-12-12T07:54:49.275Z,0.90
2022-12-12T07:59:51.954Z,1.00
2022-12-12T08:04:54.482Z,1.00
2022-12-12T08:09:57.022Z,0.90
2022-12-12T08:14:59.376Z,0.70
2022-12-12T08:20:01.717Z,0.80
2022-12-12T08:25:04.601Z,0.80
2022-12-12T08:30:08.516Z,0.80
2022-12-12T08:35:11.105Z,0.60
2022-12-12T08:40:13.824Z,0.50
2022-12-12T08:45:16.933Z,0.50
2022-12-12T08:50:19.494Z,0.50
2022-12-12T08:55:22.084Z,0.60
2022-12-12T09:00:24.565Z,0.20
2022-12-12T09:05:27.063Z,-0.20
2022-12-12T09:10:29.516Z,-0.70
2022-12-12T09:15:33.756Z,-1.20
2022-12-12T09:20:36.137Z,-1.70
2022-12-12T09:25:42.519Z,-1.40
2022-12-12T09:30:46.644Z,-0.60
2022-12-12T09:36:00.268Z,-0.50
2022-12-12T09:41:09.953Z,-0.10
2022-12-12T09:46:31.427Z,0.40
2022-12-12T09:51:35.327Z,0.80
2022-12-12T09:56:56.345Z,1.00
2022-12-12T10:02:17.370Z,1.20
2022-12-12T10:07:27.106Z,1.40
2022-12-12T10:12:31.873Z,1.60
2022-12-12T10:17:41.798Z,1.70
2022-12-12T10:22:57.560Z,1.90
2022-12-12T10:28:13.688Z,1.90
2022-12-12T10:33:25.111Z,1.70
2022-12-12T10:38:50.452Z,1.60
2022-12-12T10:44:05.029Z,1.60
2022-12-12T10:49:20.172Z,1.00
2022-12-12T10:54:26.365Z,1.10
2022-12-12T10:59:28.827Z,1.60
2022-12-12T11:04:31.906Z,2.00
2022-12-12T11:09:34.255Z,2.30
2022-12-12T11:14:39.087Z,2.40
2022-12-12T11:19:45.284Z,2.50
2022-12-12T11:24:51.032Z,2.50
2022-12-12T11:29:57.166Z,2.40
2022-12-12T11:35:03.003Z,2.50
2022-12-12T11:40:10.456Z,2.40
2022-12-12T11:45:16.631Z,2.20
2022-12-12T11:50:30.547Z,1.80
2022-12-12T11:55:49.378Z,1.70
2022-12-12T12:01:10.212Z,1.60
2022-12-12T12:06:33.907Z,1.70
2022-12-12T12:12:05.623Z,1.80
2022-12-12T12:17:08.085Z,1.80
2022-12-12T12:22:28.820Z,1.70
2022-12-12T12:27:40.264Z,1.70
2022-12-12T12:33:24.256Z,2.00
2022-12-12T12:38:54.489Z,2.10
2022-12-12T12:44:06.214Z,1.80
2022-12-12T12:49:19.680Z,2.10
2022-12-12T12:54:27.136Z,1.70
2022-12-12T12:59:51.493Z,2.70
2022-12-12T13:05:07.443Z,1.70
2022-12-12T13:10:27.199Z,1.80
2022-12-12T13:15:34.384Z,1.80
2022-12-12T13:20:51.971Z,2.00
2022-12-12T13:26:17.534Z,1.80
2022-12-12T13:31:39.850Z,1.90
2022-12-12T13:36:46.372Z,2.00
2022-12-12T13:41:56.876Z,2.00
2022-12-12T13:46:59.654Z,2.00
2022-12-12T13:52:23.277Z,2.10
2022-12-12T13:57:30.393Z,2.50
2022-12-12T14:02:41.470Z,2.50
2022-12-12T14:07:50.855Z,2.70
2022-12-12T14:12:54.965Z,2.60
2022-12-12T14:18:00.789Z,2.50
2022-12-12T14:23:42.692Z,2.80
2022-12-12T14:28:45.487Z,3.00
2022-12-12T14:34:34.341Z,2.90
2022-12-12T14:40:04.131Z,3.00
2022-12-12T14:45:31.665Z,3.20
2022-12-12T14:50:34.223Z,3.00
2022-12-12T14:55:36.588Z,2.90
2022-12-12T15:00:51.233Z,2.80
2022-12-12T15:06:31.051Z,2.80
2022-12-12T15:11:34.606Z,2.80
2022-12-12T15:16:48.414Z,2.40
2022-12-12T15:21:51.357Z,2.60
2022-12-12T15:26:56.939Z,2.70
2022-12-12T15:32:20.904Z,2.50
2022-12-12T15:37:35.577Z,2.30
2022-12-12T15:42:40.586Z,2.10
2022-12-12T15:47:43.025Z,2.10
2022-12-12T15:52:57.164Z,1.80
2022-12-12T15:57:59.815Z,1.70
2022-12-12T16:03:16.320Z,1.80
2022-12-12T16:08:39.163Z,2.20
2022-12-12T16:13:44.397Z,2.30
2022-12-12T16:18:47.141Z,2.50
2022-12-12T16:23:49.537Z,2.70
2022-12-12T16:28:52.051Z,2.60
2022-12-12T16:33:55.280Z,2.10
2022-12-12T16:38:57.682Z,2.10
2022-12-12T16:44:00.195Z,2.10
2022-12-12T16:49:04.836Z,2.10
2022-12-12T16:54:16.936Z,2.20
2022-12-12T16:59:19.385Z,2.20
2022-12-12T17:04:23.942Z,2.00
2022-12-12T17:09:29.937Z,2.00
2022-12-12T17:14:32.822Z,2.40
2022-12-12T17:19:35.222Z,2.70
2022-12-12T17:24:37.712Z,2.80
2022-12-12T17:29:40.129Z,2.70
2022-12-12T17:34:42.993Z,2.70
2022-12-12T17:39:45.540Z,2.80
2022-12-12T17:44:48.927Z,2.80
2022-12-12T17:49:51.276Z,2.70
2022-12-12T17:55:53.189Z,2.60
2022-12-12T18:00:17.769Z,2.50
2022-12-12T18:05:20.117Z,2.40
2022-12-12T18:10:22.673Z,1.90
2022-12-12T18:15:25.527Z,1.70
2022-12-12T18:20:31.217Z,1.80
2022-12-12T18:25:37.422Z,1.90
2022-12-12T18:30:40.866Z,2.10
2022-12-12T18:35:44.422Z,2.10
2022-12-12T18:40:46.975Z,2.00
2022-12-12T18:45:51.419Z,2.00
2022-12-12T18:50:54.242Z,1.80
2022-12-12T18:55:56.821Z,1.60
2022-12-12T19:01:08.855Z,1.70
2022-12-12T19:06:17.378Z,1.70
2022-12-12T19:11:21.922Z,1.70
2022-12-12T19:16:24.647Z,4.10
2022-12-12T19:21:28.144Z,1.90
2022-12-12T19:26:30.971Z,1.60
2022-12-12T19:31:34.689Z,1.40
2022-12-12T19:36:37.361Z,1.20
2022-12-12T19:41:41.095Z,1.20
2022-12-12T19:46:46.133Z,1.30
2022-12-12T19:51:48.885Z,1.40
2022-12-12T19:56:51.496Z,1.20
2022-12-12T20:01:54.828Z,1.50
2022-12-12T20:07:00.719Z,1.70
2022-12-12T20:12:04.283Z,1.60
2022-12-12T20:17:07.233Z,1.50
2022-12-12T20:22:10.231Z,1.50
2022-12-12T20:27:13.675Z,1.60
2022-12-12T20:32:18.161Z,1.60
2022-12-12T20:37:20.687Z,1.50
2022-12-12T20:42:23.139Z,1.40
2022-12-12T20:47:25.879Z,1.60
2022-12-12T20:52:29.320Z,1.70
2022-12-12T20:57:31.969Z,1.80
2022-12-12T21:02:34.763Z,1.70
2022-12-12T21:07:38.088Z,1.60
2022-12-12T21:12:40.812Z,1.50
2022-12-12T21:17:43.449Z,1.30
2022-12-12T21:22:45.930Z,0.50
2022-12-12T21:27:48.528Z,1.60
2022-12-12T21:32:51.392Z,1.40
2022-12-12T21:37:53.828Z,1.30
2022-12-12T21:42:56.403Z,1.40
2022-12-12T21:47:59.279Z,1.10
2022-12-12T21:53:22.663Z,0.90
2022-12-12T21:58:27.387Z,-0.50
2022-12-12T22:03:31.671Z,1.00
2022-12-12T22:08:40.155Z,0.60
2022-12-12T22:13:44.460Z,0.50
2022-12-12T22:18:56.489Z,0.30
2022-12-12T22:24:05.468Z,0.60
2022-12-12T22:29:13.623Z,0.50
2022-12-12T22:34:22.114Z,0.30
2022-12-12T22:39:28.481Z,0.40
2022-12-12T22:44:31.124Z,0.40
2022-12-12T22:49:33.752Z,0.50
2022-12-12T22:54:36.302Z,0.20
2022-12-12T22:59:38.639Z,0.40
2022-12-12T23:04:41.294Z,0.40
2022-12-12T23:09:52.346Z,0.40
2022-12-12T23:14:54.939Z,0.50
2022-12-12T23:19:57.304Z,0.40
2022-12-12T23:24:59.920Z,0.50
2022-12-12T23:30:02.271Z,0.70
2022-12-12T23:35:05.413Z,0.70
2022-12-12T23:40:08.506Z,0.80
2022-12-12T23:45:11.387Z,0.70
2022-12-12T23:50:14.108Z,0.60
2022-12-12T23:55:16.938Z,0.60
